Weather at Morava Airport

Public forecast

Using degrees Celsius for public forecast. Weather courtesy of forecast.io.

Current aviation weather report (METAR) for Morava Airport

Report is more than 6 hours old.

Retrieved 2022/09/17 19:00 UTC (17 days ago):

LYKV 171900Z 31010KT 290V350 9999 SCT015 BKN022 15/15 Q1005 TEMPO 32022KT

Aviation forecast (TAF) for Morava Airport

Forecast is more than 12 hours old.

Retrieved 2022/09/17 18:00 UTC (17 days ago):

TAF LYKV 171700Z 1718/1818 32009KT 9999 SCT008 BKN025 TX17/1813Z TN10/1804Z TEMPO 1718/1719 5000 BR TEMPO 1719/1801 32015G25KT 4000 RA BKN005 BKN020 BECMG 1816/1818 21005KT